sensor_id;sensor_type;location;lat;lon;timestamp;pressure;altitude;pressure_sealevel;temperature;humidity
42067;BME280;27734;47.028;28.820;2024-02-14T00:02:02;99926.34;;;7.97;97.98
42067;BME280;27734;47.028;28.820;2024-02-14T00:04:34;99933.21;;;7.95;97.76
42067;BME280;27734;47.028;28.820;2024-02-14T00:07:06;99931.40;;;7.92;97.45
42067;BME280;27734;47.028;28.820;2024-02-14T00:09:37;99930.48;;;7.91;97.93
42067;BME280;27734;47.028;28.820;2024-02-14T00:12:09;99938.23;;;7.88;97.45
42067;BME280;27734;47.028;28.820;2024-02-14T00:14:40;99941.67;;;7.87;98.33
42067;BME280;27734;47.028;28.820;2024-02-14T00:17:12;99942.50;;;7.86;98.18
42067;BME280;27734;47.028;28.820;2024-02-14T00:19:43;99936.22;;;7.81;97.79
42067;BME280;27734;47.028;28.820;2024-02-14T00:22:15;99939.66;;;7.80;98.23
42067;BME280;27734;47.028;28.820;2024-02-14T00:24:46;99938.72;;;7.78;98.43
42067;BME280;27734;47.028;28.820;2024-02-14T00:27:17;99943.82;;;7.75;98.42
42067;BME280;27734;47.028;28.820;2024-02-14T00:29:48;99940.21;;;7.71;98.59
42067;BME280;27734;47.028;28.820;2024-02-14T00:32:19;99946.31;;;7.72;98.68
42067;BME280;27734;47.028;28.820;2024-02-14T00:34:50;99944.52;;;7.71;98.20
42067;BME280;27734;47.028;28.820;2024-02-14T00:37:22;99943.70;;;7.72;98.37
42067;BME280;27734;47.028;28.820;2024-02-14T00:39:53;99947.98;;;7.70;98.87
42067;BME280;27734;47.028;28.820;2024-02-14T00:42:25;99947.98;;;7.70;99.03
42067;BME280;27734;47.028;28.820;2024-02-14T00:44:57;99954.85;;;7.68;98.58
42067;BME280;27734;47.028;28.820;2024-02-14T00:47:28;99949.51;;;7.65;98.84
42067;BME280;27734;47.028;28.820;2024-02-14T00:49:59;99953.80;;;7.63;99.08
42067;BME280;27734;47.028;28.820;2024-02-14T00:52:30;99958.08;;;7.61;99.42
42067;BME280;27734;47.028;28.820;2024-02-14T00:55:02;99956.28;;;7.60;100.00
42067;BME280;27734;47.028;28.820;2024-02-14T00:57:33;99966.61;;;7.56;99.86
42067;BME280;27734;47.028;28.820;2024-02-14T01:00:06;99963.87;;;7.53;99.82
42067;BME280;27734;47.028;28.820;2024-02-14T01:02:39;99955.92;;;7.50;99.94
42067;BME280;27734;47.028;28.820;2024-02-14T01:05:14;99969.80;;;7.49;99.65
42067;BME280;27734;47.028;28.820;2024-02-14T01:07:45;99963.70;;;7.49;100.00
42067;BME280;27734;47.028;28.820;2024-02-14T01:10:17;99967.98;;;7.47;99.58
42067;BME280;27734;47.028;28.820;2024-02-14T01:12:49;99967.06;;;7.46;100.00
42067;BME280;27734;47.028;28.820;2024-02-14T01:15:20;99962.70;;;7.45;100.00
42067;BME280;27734;47.028;28.820;2024-02-14T01:17:51;99965.24;;;7.44;100.00
42067;BME280;27734;47.028;28.820;2024-02-14T01:20:23;99967.00;;;7.45;100.00
42067;BME280;27734;47.028;28.820;2024-02-14T01:22:55;99961.66;;;7.42;100.00
42067;BME280;27734;47.028;28.820;2024-02-14T01:25:27;99967.73;;;7.41;100.00
42067;BME280;27734;47.028;28.820;2024-02-14T01:27:58;99964.15;;;7.38;100.00
42067;BME280;27734;47.028;28.820;2024-02-14T01:30:30;99969.43;;;7.40;100.00
42067;BME280;27734;47.028;28.820;2024-02-14T01:33:01;99966.00;;;7.41;100.00
42067;BME280;27734;47.028;28.820;2024-02-14T01:35:33;99972.95;;;7.41;100.00
42067;BME280;27734;47.028;28.820;2024-02-14T01:38:05;99969.43;;;7.40;100.00
42067;BME280;27734;47.028;28.820;2024-02-14T01:40:36;99977.32;;;7.42;100.00
42067;BME280;27734;47.028;28.820;2024-02-14T01:43:07;99973.77;;;7.40;100.00
42067;BME280;27734;47.028;28.820;2024-02-14T01:45:39;99977.27;;;7.40;100.00
42067;BME280;27734;47.028;28.820;2024-02-14T01:48:11;99981.54;;;7.38;100.00
42067;BME280;27734;47.028;28.820;2024-02-14T01:50:42;99976.20;;;7.35;100.00
42067;BME280;27734;47.028;28.820;2024-02-14T01:53:14;99975.19;;;7.31;100.00
42067;BME280;27734;47.028;28.820;2024-02-14T01:55:45;99976.86;;;7.29;100.00
42067;BME280;27734;47.028;28.820;2024-02-14T01:58:16;99982.02;;;7.28;100.00
42067;BME280;27734;47.028;28.820;2024-02-14T02:00:48;99985.51;;;7.28;100.00
42067;BME280;27734;47.028;28.820;2024-02-14T02:03:20;99982.84;;;7.27;100.00
42067;BME280;27734;47.028;28.820;2024-02-14T02:05:52;99995.00;;;7.26;100.00
42067;BME280;27734;47.028;28.820;2024-02-14T02:08:24;99986.98;;;7.22;100.00
42067;BME280;27734;47.028;28.820;2024-02-14T02:10:55;99995.70;;;7.22;100.00
42067;BME280;27734;47.028;28.820;2024-02-14T02:13:27;99993.15;;;7.24;100.00
42067;BME280;27734;47.028;28.820;2024-02-14T02:15:58;99988.94;;;7.27;100.00
42067;BME280;27734;47.028;28.820;2024-02-14T02:18:31;99997.61;;;7.26;100.00
42067;BME280;27734;47.028;28.820;2024-02-14T02:21:02;99995.00;;;7.26;100.00
42067;BME280;27734;47.028;28.820;2024-02-14T02:23:36;100000.16;;;7.25;100.00
42067;BME280;27734;47.028;28.820;2024-02-14T02:26:07;100001.80;;;7.23;100.00
42067;BME280;27734;47.028;28.820;2024-02-14T02:28:39;100006.20;;;7.24;100.00
42067;BME280;27734;47.028;28.820;2024-02-14T02:31:10;100007.02;;;7.23;100.00
42067;BME280;27734;47.028;28.820;2024-02-14T02:33:41;99999.06;;;7.19;100.00
42067;BME280;27734;47.028;28.820;2024-02-14T02:36:13;100012.11;;;7.19;100.00
42067;BME280;27734;47.028;28.820;2024-02-14T02:38:46;100011.16;;;7.17;100.00
42067;BME280;27734;47.028;28.820;2024-02-14T02:41:17;100009.37;;;7.16;100.00
42067;BME280;27734;47.028;28.820;2024-02-14T02:43:49;100017.20;;;7.16;100.00
42067;BME280;27734;47.028;28.820;2024-02-14T02:46:21;100015.24;;;7.11;100.00
42067;BME280;27734;47.028;28.820;2024-02-14T02:48:52;100022.16;;;7.10;100.00
42067;BME280;27734;47.028;28.820;2024-02-14T02:51:24;100023.01;;;7.09;100.00
42067;BME280;27734;47.028;28.820;2024-02-14T02:53:57;100020.40;;;7.09;100.00
42067;BME280;27734;47.028;28.820;2024-02-14T02:56:28;100025.48;;;7.06;100.00
42067;BME280;27734;47.028;28.820;2024-02-14T02:59:07;100030.64;;;7.05;100.00
42067;BME280;27734;47.028;28.820;2024-02-14T03:01:38;100031.39;;;7.02;100.00
42067;BME280;27734;47.028;28.820;2024-02-14T03:04:10;100040.03;;;7.01;100.00
42067;BME280;27734;47.028;28.820;2024-02-14T03:06:43;100039.83;;;6.96;100.00
42067;BME280;27734;47.028;28.820;2024-02-14T03:09:15;100033.73;;;6.96;100.00
42067;BME280;27734;47.028;28.820;2024-02-14T03:11:48;100041.50;;;6.94;100.00
42067;BME280;27734;47.028;28.820;2024-02-14T03:14:20;100036.14;;;6.91;100.00
42067;BME280;27734;47.028;28.820;2024-02-14T03:16:51;100049.12;;;6.90;100.00
42067;BME280;27734;47.028;28.820;2024-02-14T03:19:22;100054.20;;;6.87;100.00
42067;BME280;27734;47.028;28.820;2024-02-14T03:21:53;100061.08;;;6.84;100.00
42067;BME280;27734;47.028;28.820;2024-02-14T03:24:25;100071.52;;;6.84;100.00
42067;BME280;27734;47.028;28.820;2024-02-14T03:26:56;100072.33;;;6.83;100.00
42067;BME280;27734;47.028;28.820;2024-02-14T03:29:27;100072.39;;;6.85;100.00
42067;BME280;27734;47.028;28.820;2024-02-14T03:31:58;100066.37;;;6.86;100.00
42067;BME280;27734;47.028;28.820;2024-02-14T03:34:33;100073.17;;;6.82;100.00
42067;BME280;27734;47.028;28.820;2024-02-14T03:37:05;100076.66;;;6.83;100.00
42067;BME280;27734;47.028;28.820;2024-02-14T03:39:39;100074.87;;;6.82;100.00
42067;BME280;27734;47.028;28.820;2024-02-14T03:42:10;100081.81;;;6.81;100.00
42067;BME280;27734;47.028;28.820;2024-02-14T03:44:42;100083.54;;;6.81;100.00
42067;BME280;27734;47.028;28.820;2024-02-14T03:47:13;100087.03;;;6.81;100.00
42067;BME280;27734;47.028;28.820;2024-02-14T03:49:44;100088.69;;;6.79;100.00
42067;BME280;27734;47.028;28.820;2024-02-14T03:52:15;100085.95;;;6.76;100.00
42067;BME280;27734;47.028;28.820;2024-02-14T03:54:46;100096.23;;;6.73;100.00
42067;BME280;27734;47.028;28.820;2024-02-14T03:57:18;100097.12;;;6.74;100.00
42067;BME280;27734;47.028;28.820;2024-02-14T03:59:49;100093.63;;;6.73;100.00
42067;BME280;27734;47.028;28.820;2024-02-14T04:02:20;100093.49;;;6.70;100.00
42067;BME280;27734;47.028;28.820;2024-02-14T04:04:53;100101.17;;;6.67;100.00
42067;BME280;27734;47.028;28.820;2024-02-14T04:07:24;100095.83;;;6.64;100.00
42067;BME280;27734;47.028;28.820;2024-02-14T04:09:56;100101.92;;;6.64;100.00
42067;BME280;27734;47.028;28.820;2024-02-14T04:12:27;100100.90;;;6.61;100.00
42067;BME280;27734;47.028;28.820;2024-02-14T04:14:58;100101.71;;;6.60;100.00
42067;BME280;27734;47.028;28.820;2024-02-14T04:17:29;100104.04;;;6.54;100.00
42067;BME280;27734;47.028;28.820;2024-02-14T04:20:00;100102.24;;;6.53;100.00
42067;BME280;27734;47.028;28.820;2024-02-14T04:22:32;100105.63;;;6.50;100.00
42067;BME280;27734;47.028;28.820;2024-02-14T04:25:04;100102.88;;;6.47;100.00
42067;BME280;27734;47.028;28.820;2024-02-14T04:27:35;100120.06;;;6.43;100.00
42067;BME280;27734;47.028;28.820;2024-02-14T04:30:08;100119.19;;;6.43;100.00
42067;BME280;27734;47.028;28.820;2024-02-14T04:32:39;100124.25;;;6.40;100.00
42067;BME280;27734;47.028;28.820;2024-02-14T04:35:10;100133.80;;;6.39;100.00
42067;BME280;27734;47.028;28.820;2024-02-14T04:37:45;100128.44;;;6.36;100.00
42067;BME280;27734;47.028;28.820;2024-02-14T04:40:17;100141.33;;;6.33;100.00
42067;BME280;27734;47.028;28.820;2024-02-14T04:42:49;100140.30;;;6.29;100.00
42067;BME280;27734;47.028;28.820;2024-02-14T04:45:20;100144.53;;;6.27;100.00
42067;BME280;27734;47.028;28.820;2024-02-14T04:47:51;100141.78;;;6.24;100.00
42067;BME280;27734;47.028;28.820;2024-02-14T04:50:23;100148.71;;;6.24;100.00
42067;BME280;27734;47.028;28.820;2024-02-14T04:52:54;100147.83;;;6.23;100.00
42067;BME280;27734;47.028;28.820;2024-02-14T04:55:25;100151.24;;;6.22;100.00
42067;BME280;27734;47.028;28.820;2024-02-14T04:57:56;100157.34;;;6.23;100.00
42067;BME280;27734;47.028;28.820;2024-02-14T05:00:28;100159.94;;;6.23;100.00
42067;BME280;27734;47.028;28.820;2024-02-14T05:02:59;100170.29;;;6.21;100.00
42067;BME280;27734;47.028;28.820;2024-02-14T05:05:31;100178.03;;;6.20;100.00
42067;BME280;27734;47.028;28.820;2024-02-14T05:08:04;100186.69;;;6.19;100.00
42067;BME280;27734;47.028;28.820;2024-02-14T05:10:35;100182.14;;;6.15;100.00
42067;BME280;27734;47.028;28.820;2024-02-14T05:13:07;100189.00;;;6.13;100.00
42067;BME280;27734;47.028;28.820;2024-02-14T05:15:38;100192.48;;;6.13;100.00
42067;BME280;27734;47.028;28.820;2024-02-14T05:18:09;100191.68;;;6.14;100.00
42067;BME280;27734;47.028;28.820;2024-02-14T05:20:40;100202.02;;;6.13;100.00
42067;BME280;27734;47.028;28.820;2024-02-14T05:23:11;100205.44;;;6.11;100.00
42067;BME280;27734;47.028;28.820;2024-02-14T05:25:42;100208.70;;;6.07;100.00
42067;BME280;27734;47.028;28.820;2024-02-14T05:28:14;100204.41;;;6.08;100.00
42067;BME280;27734;47.028;28.820;2024-02-14T05:30:47;100205.06;;;6.04;100.00
42067;BME280;27734;47.028;28.820;2024-02-14T05:33:19;100199.05;;;6.05;100.00
42067;BME280;27734;47.028;28.820;2024-02-14T05:35:54;100220.69;;;6.04;100.00
42067;BME280;27734;47.028;28.820;2024-02-14T05:38:25;100224.86;;;6.00;100.00
42067;BME280;27734;47.028;28.820;2024-02-14T05:40:56;100236.16;;;6.01;100.00
42067;BME280;27734;47.028;28.820;2024-02-14T05:43:27;100237.89;;;6.00;100.00
42067;BME280;27734;47.028;28.820;2024-02-14T05:46:01;100248.16;;;5.97;100.00
42067;BME280;27734;47.028;28.820;2024-02-14T05:48:33;100244.52;;;5.95;100.00
42067;BME280;27734;47.028;28.820;2024-02-14T05:51:05;100254.05;;;5.94;100.00
42067;BME280;27734;47.028;28.820;2024-02-14T05:53:36;100257.55;;;5.95;100.00
42067;BME280;27734;47.028;28.820;2024-02-14T05:56:07;100255.70;;;5.92;100.00
42067;BME280;27734;47.028;28.820;2024-02-14T05:58:49;100262.67;;;5.93;100.00
42067;BME280;27734;47.028;28.820;2024-02-14T06:01:24;100268.80;;;5.94;100.00
42067;BME280;27734;47.028;28.820;2024-02-14T06:03:56;100276.80;;;5.97;100.00
42067;BME280;27734;47.028;28.820;2024-02-14T06:06:27;100272.28;;;5.94;100.00
42067;BME280;27734;47.028;28.820;2024-02-14T06:08:58;100278.30;;;5.93;100.00
42067;BME280;27734;47.028;28.820;2024-02-14T06:11:29;100287.03;;;5.94;100.00
42067;BME280;27734;47.028;28.820;2024-02-14T06:14:00;100279.41;;;5.97;100.00
42067;BME280;27734;47.028;28.820;2024-02-14T06:16:33;100290.59;;;5.96;100.00
42067;BME280;27734;47.028;28.820;2024-02-14T06:19:05;100294.92;;;5.96;100.00
42067;BME280;27734;47.028;28.820;2024-02-14T06:21:42;100289.72;;;5.96;100.00
42067;BME280;27734;47.028;28.820;2024-02-14T06:24:13;100290.36;;;5.91;100.00
42067;BME280;27734;47.028;28.820;2024-02-14T06:26:44;100295.65;;;5.93;100.00
42067;BME280;27734;47.028;28.820;2024-02-14T06:29:16;100315.67;;;5.94;100.00
42067;BME280;27734;47.028;28.820;2024-02-14T06:31:48;100297.45;;;5.94;100.00
42067;BME280;27734;47.028;28.820;2024-02-14T06:34:19;100289.63;;;5.94;100.00
42067;BME280;27734;47.028;28.820;2024-02-14T06:36:50;100294.84;;;5.94;100.00
42067;BME280;27734;47.028;28.820;2024-02-14T06:39:21;100308.06;;;5.97;100.00
42067;BME280;27734;47.028;28.820;2024-02-14T06:41:52;100308.06;;;5.97;100.00
42067;BME280;27734;47.028;28.820;2024-02-14T06:44:24;100302.66;;;5.94;100.00
42067;BME280;27734;47.028;28.820;2024-02-14T06:46:55;100304.42;;;5.95;100.00
42067;BME280;27734;47.028;28.820;2024-02-14T06:49:26;100309.62;;;5.95;100.00
42067;BME280;27734;47.028;28.820;2024-02-14T06:51:57;100314.95;;;5.97;100.00
42067;BME280;27734;47.028;28.820;2024-02-14T06:54:29;100320.05;;;5.95;100.00
42067;BME280;27734;47.028;28.820;2024-02-14T06:57:00;100326.29;;;5.97;100.00
42067;BME280;27734;47.028;28.820;2024-02-14T06:59:33;100322.92;;;6.00;100.00
42067;BME280;27734;47.028;28.820;2024-02-14T07:02:05;100335.22;;;6.02;100.00
42067;BME280;27734;47.028;28.820;2024-02-14T07:04:36;100328.05;;;5.98;100.00
42067;BME280;27734;47.028;28.820;2024-02-14T07:07:20;100327.17;;;5.98;100.00
42067;BME280;27734;47.028;28.820;2024-02-14T07:09:51;100333.27;;;5.98;100.00
42067;BME280;27734;47.028;28.820;2024-02-14T07:12:23;100328.97;;;5.99;100.00
42067;BME280;27734;47.028;28.820;2024-02-14T07:14:55;100337.59;;;5.98;100.00
42067;BME280;27734;47.028;28.820;2024-02-14T07:17:27;100341.08;;;5.98;100.00
42067;BME280;27734;47.028;28.820;2024-02-14T07:19:59;100339.39;;;5.99;100.00
42067;BME280;27734;47.028;28.820;2024-02-14T07:22:39;100338.47;;;5.98;100.00
42067;BME280;27734;47.028;28.820;2024-02-14T07:25:11;100352.58;;;6.02;100.00
42067;BME280;27734;47.028;28.820;2024-02-14T07:27:42;100350.85;;;6.02;100.00
42067;BME280;27734;47.028;28.820;2024-02-14T07:30:15;100354.42;;;6.04;100.00
42067;BME280;27734;47.028;28.820;2024-02-14T07:32:46;100357.02;;;6.04;100.00
42067;BME280;27734;47.028;28.820;2024-02-14T07:35:17;100361.59;;;6.08;100.00
42067;BME280;27734;47.028;28.820;2024-02-14T07:37:49;100366.31;;;6.16;100.00
42067;BME280;27734;47.028;28.820;2024-02-14T07:40:21;100371.68;;;6.19;100.00
42067;BME280;27734;47.028;28.820;2024-02-14T07:42:57;100375.97;;;6.18;100.00
42067;BME280;27734;47.028;28.820;2024-02-14T07:45:29;100390.08;;;6.22;100.00
42067;BME280;27734;47.028;28.820;2024-02-14T07:48:00;100383.95;;;6.21;100.00
42067;BME280;27734;47.028;28.820;2024-02-14T07:50:37;100386.31;;;6.17;100.00
42067;BME280;27734;47.028;28.820;2024-02-14T07:53:12;100402.78;;;6.16;100.00
42067;BME280;27734;47.028;28.820;2024-02-14T07:55:44;100388.27;;;6.21;100.00
42067;BME280;27734;47.028;28.820;2024-02-14T07:58:16;100398.86;;;6.24;100.00
42067;BME280;27734;47.028;28.820;2024-02-14T08:00:48;100382.65;;;6.29;100.00
42067;BME280;27734;47.028;28.820;2024-02-14T08:03:21;100390.75;;;6.36;100.00
42067;BME280;27734;47.028;28.820;2024-02-14T08:06:01;100396.64;;;6.32;100.00
42067;BME280;27734;47.028;28.820;2024-02-14T08:08:32;100410.48;;;6.30;100.00
42067;BME280;27734;47.028;28.820;2024-02-14T08:11:08;100416.61;;;6.31;100.00
42067;BME280;27734;47.028;28.820;2024-02-14T08:13:41;100404.70;;;6.36;100.00
42067;BME280;27734;47.028;28.820;2024-02-14T08:16:13;100403.86;;;6.37;100.00
42067;BME280;27734;47.028;28.820;2024-02-14T08:18:44;100408.34;;;6.40;100.00
42067;BME280;27734;47.028;28.820;2024-02-14T08:21:16;100413.71;;;6.43;100.00
42067;BME280;27734;47.028;28.820;2024-02-14T08:26:37;100412.67;;;6.39;100.00
42067;BME280;27734;47.028;28.820;2024-02-14T08:29:11;100422.86;;;6.35;100.00
42067;BME280;27734;47.028;28.820;2024-02-14T08:31:47;100420.17;;;6.33;100.00
42067;BME280;27734;47.028;28.820;2024-02-14T08:34:19;100436.62;;;6.32;100.00
42067;BME280;27734;47.028;28.820;2024-02-14T08:36:51;100438.42;;;6.33;100.00
42067;BME280;27734;47.028;28.820;2024-02-14T08:39:23;100437.58;;;6.34;100.00
42067;BME280;27734;47.028;28.820;2024-02-14T08:41:56;100452.66;;;6.40;100.00
42067;BME280;27734;47.028;28.820;2024-02-14T08:44:32;100448.64;;;6.46;100.00
42067;BME280;27734;47.028;28.820;2024-02-14T08:47:06;100447.91;;;6.49;100.00
42067;BME280;27734;47.028;28.820;2024-02-14T08:49:40;100450.67;;;6.52;100.00
42067;BME280;27734;47.028;28.820;2024-02-14T08:52:13;100465.75;;;6.58;100.00
42067;BME280;27734;47.028;28.820;2024-02-14T08:54:54;100469.24;;;6.58;100.00
42067;BME280;27734;47.028;28.820;2024-02-14T08:57:26;100457.93;;;6.58;100.00
42067;BME280;27734;47.028;28.820;2024-02-14T08:59:57;100465.07;;;6.62;100.00
42067;BME280;27734;47.028;28.820;2024-02-14T09:02:28;100460.02;;;6.65;100.00
42067;BME280;27734;47.028;28.820;2024-02-14T09:05:00;100459.85;;;6.62;100.00
42067;BME280;27734;47.028;28.820;2024-02-14T09:07:36;100466.80;;;6.61;100.00
42067;BME280;27734;47.028;28.820;2024-02-14T09:10:09;100473.73;;;6.61;100.00
42067;BME280;27734;47.028;28.820;2024-02-14T09:12:42;100470.28;;;6.62;100.00
42067;BME280;27734;47.028;28.820;2024-02-14T09:15:14;100459.70;;;6.59;100.00
42067;BME280;27734;47.028;28.820;2024-02-14T09:17:46;100476.75;;;6.52;100.00
42067;BME280;27734;47.028;28.820;2024-02-14T09:20:23;100476.51;;;6.47;100.00
42067;BME280;27734;47.028;28.820;2024-02-14T09:23:00;100469.49;;;6.46;100.00
42067;BME280;27734;47.028;28.820;2024-02-14T09:25:34;100461.75;;;6.48;100.00
42067;BME280;27734;47.028;28.820;2024-02-14T09:28:07;100465.36;;;6.50;100.00
42067;BME280;27734;47.028;28.820;2024-02-14T09:30:39;100473.26;;;6.52;99.97
42067;BME280;27734;47.028;28.820;2024-02-14T09:33:17;100473.98;;;6.49;99.32
42067;BME280;27734;47.028;28.820;2024-02-14T09:35:50;100476.83;;;6.54;100.00
42067;BME280;27734;47.028;28.820;2024-02-14T09:38:22;100473.73;;;6.61;100.00
42067;BME280;27734;47.028;28.820;2024-02-14T09:40:55;100478.34;;;6.66;99.58
42067;BME280;27734;47.028;28.820;2024-02-14T09:43:34;100464.66;;;6.71;99.08
42067;BME280;27734;47.028;28.820;2024-02-14T09:46:08;100472.14;;;6.81;99.30
42067;BME280;27734;47.028;28.820;2024-02-14T09:48:44;100471.53;;;6.87;98.97
42067;BME280;27734;47.028;28.820;2024-02-14T09:51:17;100477.78;;;6.90;98.63
42067;BME280;27734;47.028;28.820;2024-02-14T09:53:49;100478.02;;;6.95;99.00
42067;BME280;27734;47.028;28.820;2024-02-14T09:56:24;100480.20;;;7.04;98.63
42067;BME280;27734;47.028;28.820;2024-02-14T09:58:58;100474.92;;;7.20;98.38
42067;BME280;27734;47.028;28.820;2024-02-14T10:01:40;100486.40;;;7.24;97.57
42067;BME280;27734;47.028;28.820;2024-02-14T10:04:19;100475.45;;;7.31;97.84
42067;BME280;27734;47.028;28.820;2024-02-14T10:07:05;100481.78;;;7.36;97.72
42067;BME280;27734;47.028;28.820;2024-02-14T10:09:43;100479.83;;;7.32;97.79
42067;BME280;27734;47.028;28.820;2024-02-14T10:12:18;100479.30;;;7.21;97.31
42067;BME280;27734;47.028;28.820;2024-02-14T10:14:50;100489.21;;;7.10;96.66
42067;BME280;27734;47.028;28.820;2024-02-14T10:17:23;100488.60;;;6.98;96.60
42067;BME280;27734;47.028;28.820;2024-02-14T10:19:58;100491.59;;;6.88;96.38
42067;BME280;27734;47.028;28.820;2024-02-14T10:22:35;100492.09;;;6.80;96.26
42067;BME280;27734;47.028;28.820;2024-02-14T10:25:09;100500.28;;;6.70;96.65
42067;BME280;27734;47.028;28.820;2024-02-14T10:27:41;100505.02;;;6.61;96.40
42067;BME280;27734;47.028;28.820;2024-02-14T10:30:22;100496.80;;;6.53;96.65
42067;BME280;27734;47.028;28.820;2024-02-14T10:32:59;100508.59;;;6.46;96.63
42067;BME280;27734;47.028;28.820;2024-02-14T10:35:31;100512.84;;;6.44;96.70
42067;BME280;27734;47.028;28.820;2024-02-14T10:38:07;100525.72;;;6.41;96.60
42067;BME280;27734;47.028;28.820;2024-02-14T10:40:41;100506.50;;;6.39;96.08
42067;BME280;27734;47.028;28.820;2024-02-14T10:43:19;100512.36;;;6.35;96.16
42067;BME280;27734;47.028;28.820;2024-02-14T10:45:51;100533.20;;;6.35;96.25
42067;BME280;27734;47.028;28.820;2024-02-14T10:48:24;100524.59;;;6.36;96.38
42067;BME280;27734;47.028;28.820;2024-02-14T10:50:59;100534.93;;;6.35;96.01
42067;BME280;27734;47.028;28.820;2024-02-14T10:53:34;100534.84;;;6.33;96.21
42067;BME280;27734;47.028;28.820;2024-02-14T10:56:06;100527.83;;;6.32;96.34
42067;BME280;27734;47.028;28.820;2024-02-14T10:58:40;100528.59;;;6.29;96.19
42067;BME280;27734;47.028;28.820;2024-02-14T11:01:13;100527.67;;;6.29;95.72
42067;BME280;27734;47.028;28.820;2024-02-14T11:03:46;100530.11;;;6.26;96.09
42067;BME280;27734;47.028;28.820;2024-02-14T11:06:19;100541.53;;;6.28;95.51
42067;BME280;27734;47.028;28.820;2024-02-14T11:09:06;100544.14;;;6.28;96.06
42067;BME280;27734;47.028;28.820;2024-02-14T11:11:46;100525.98;;;6.29;95.78
42067;BME280;27734;47.028;28.820;2024-02-14T11:14:25;100547.80;;;6.32;95.45
42067;BME280;27734;47.028;28.820;2024-02-14T11:17:00;100553.89;;;6.32;95.34
42067;BME280;27734;47.028;28.820;2024-02-14T11:19:35;100544.36;;;6.33;94.96
42067;BME280;27734;47.028;28.820;2024-02-14T11:22:18;100550.32;;;6.30;95.13
42067;BME280;27734;47.028;28.820;2024-02-14T11:24:54;100541.70;;;6.31;95.49
42067;BME280;27734;47.028;28.820;2024-02-14T11:27:27;100552.42;;;6.37;95.62
42067;BME280;27734;47.028;28.820;2024-02-14T11:30:18;100550.81;;;6.39;94.98
42067;BME280;27734;47.028;28.820;2024-02-14T11:33:28;100547.12;;;6.36;94.46
42067;BME280;27734;47.028;28.820;2024-02-14T11:38:46;100552.66;;;6.42;94.43
42067;BME280;27734;47.028;28.820;2024-02-14T11:41:18;100556.91;;;6.40;94.56
42067;BME280;27734;47.028;28.820;2024-02-14T11:43:54;100570.03;;;6.41;95.00
42067;BME280;27734;47.028;28.820;2024-02-14T11:46:36;100559.11;;;6.32;94.73
42067;BME280;27734;47.028;28.820;2024-02-14T11:49:19;100563.68;;;6.36;94.46
42067;BME280;27734;47.028;28.820;2024-02-14T11:51:52;100568.14;;;6.39;94.56
42067;BME280;27734;47.028;28.820;2024-02-14T11:54:24;100568.89;;;6.36;93.99
42067;BME280;27734;47.028;28.820;2024-02-14T11:56:57;100576.55;;;6.33;93.83
42067;BME280;27734;47.028;28.820;2024-02-14T11:59:30;100566.84;;;6.30;93.49
42067;BME280;27734;47.028;28.820;2024-02-14T12:02:31;100573.69;;;6.28;93.51
42067;BME280;27734;47.028;28.820;2024-02-14T12:05:10;100563.27;;;6.28;93.23
42067;BME280;27734;47.028;28.820;2024-02-14T12:07:50;100569.37;;;6.29;93.79
42067;BME280;27734;47.028;28.820;2024-02-14T12:10:24;100574.74;;;6.32;94.18
42067;BME280;27734;47.028;28.820;2024-02-14T12:13:10;100563.68;;;6.36;93.00
42067;BME280;27734;47.028;28.820;2024-02-14T12:15:48;100580.13;;;6.35;93.41
42067;BME280;27734;47.028;28.820;2024-02-14T12:18:24;100577.52;;;6.35;93.15
42067;BME280;27734;47.028;28.820;2024-02-14T12:21:04;100577.52;;;6.35;93.36
42067;BME280;27734;47.028;28.820;2024-02-14T12:23:38;100571.50;;;6.36;93.02
42067;BME280;27734;47.028;28.820;2024-02-14T12:26:09;100570.75;;;6.39;93.28
42067;BME280;27734;47.028;28.820;2024-02-14T12:28:51;100557.23;;;6.46;93.46
42067;BME280;27734;47.028;28.820;2024-02-14T12:31:26;100566.94;;;6.48;93.17
42067;BME280;27734;47.028;28.820;2024-02-14T12:33:58;100564.34;;;6.48;93.08
42067;BME280;27734;47.028;28.820;2024-02-14T12:36:32;100575.89;;;6.54;92.28
42067;BME280;27734;47.028;28.820;2024-02-14T12:39:04;100576.06;;;6.57;92.48
42067;BME280;27734;47.028;28.820;2024-02-14T12:41:36;100567.52;;;6.59;92.49
42067;BME280;27734;47.028;28.820;2024-02-14T12:44:10;100580.63;;;6.61;92.53
42067;BME280;27734;47.028;28.820;2024-02-14T12:46:43;100584.12;;;6.61;92.20
42067;BME280;27734;47.028;28.820;2024-02-14T12:49:15;100585.69;;;6.58;92.42
42067;BME280;27734;47.028;28.820;2024-02-14T12:51:50;100581.44;;;6.60;92.51
42067;BME280;27734;47.028;28.820;2024-02-14T12:54:25;100581.44;;;6.60;92.46
42067;BME280;27734;47.028;28.820;2024-02-14T12:56:58;100589.17;;;6.58;91.90
42067;BME280;27734;47.028;28.820;2024-02-14T12:59:29;100589.02;;;6.55;91.65
42067;BME280;27734;47.028;28.820;2024-02-14T13:02:01;100589.90;;;6.56;91.71
42067;BME280;27734;47.028;28.820;2024-02-14T13:04:32;100597.80;;;6.57;91.57
42067;BME280;27734;47.028;28.820;2024-02-14T13:07:11;100595.11;;;6.56;91.28
42067;BME280;27734;47.028;28.820;2024-02-14T13:09:43;100591.62;;;6.55;91.85
42067;BME280;27734;47.028;28.820;2024-02-14T13:12:16;100597.55;;;6.53;91.88
42067;BME280;27734;47.028;28.820;2024-02-14T13:14:52;100602.69;;;6.51;91.96
42067;BME280;27734;47.028;28.820;2024-02-14T13:17:24;100608.73;;;6.50;92.15
42067;BME280;27734;47.028;28.820;2024-02-14T13:19:57;100614.59;;;6.46;91.57
42067;BME280;27734;47.028;28.820;2024-02-14T13:22:30;100615.23;;;6.42;92.13